sensor_id;sensor_type;location;lat;lon;timestamp;P1;durP1;ratioP1;P2;durP2;ratioP2
22429;SDS011;11382;48.086;11.632;2023-01-04T00:01:23;7.60;;;4.53;;
22429;SDS011;11382;48.086;11.632;2023-01-04T00:03:51;6.95;;;4.20;;
22429;SDS011;11382;48.086;11.632;2023-01-04T00:06:21;8.93;;;5.10;;
22429;SDS011;11382;48.086;11.632;2023-01-04T00:08:48;6.75;;;4.68;;
22429;SDS011;11382;48.086;11.632;2023-01-04T00:11:17;7.70;;;5.22;;
22429;SDS011;11382;48.086;11.632;2023-01-04T00:13:47;8.18;;;5.30;;
22429;SDS011;11382;48.086;11.632;2023-01-04T00:16:16;6.55;;;4.88;;
22429;SDS011;11382;48.086;11.632;2023-01-04T00:18:46;7.47;;;4.72;;
22429;SDS011;11382;48.086;11.632;2023-01-04T00:21:15;8.40;;;5.43;;
22429;SDS011;11382;48.086;11.632;2023-01-04T00:23:46;8.73;;;5.05;;
22429;SDS011;11382;48.086;11.632;2023-01-04T00:26:16;6.60;;;4.78;;
22429;SDS011;11382;48.086;11.632;2023-01-04T00:28:47;8.02;;;4.80;;
22429;SDS011;11382;48.086;11.632;2023-01-04T00:31:20;6.82;;;4.38;;
22429;SDS011;11382;48.086;11.632;2023-01-04T00:33:49;5.22;;;4.13;;
22429;SDS011;11382;48.086;11.632;2023-01-04T00:36:19;5.65;;;3.83;;
22429;SDS011;11382;48.086;11.632;2023-01-04T00:38:48;6.97;;;4.35;;
22429;SDS011;11382;48.086;11.632;2023-01-04T00:41:33;6.32;;;3.97;;
22429;SDS011;11382;48.086;11.632;2023-01-04T00:44:22;5.40;;;3.80;;
22429;SDS011;11382;48.086;11.632;2023-01-04T00:46:51;7.18;;;3.90;;
22429;SDS011;11382;48.086;11.632;2023-01-04T00:49:19;5.68;;;4.10;;
22429;SDS011;11382;48.086;11.632;2023-01-04T00:51:47;6.38;;;3.92;;
22429;SDS011;11382;48.086;11.632;2023-01-04T00:54:16;5.40;;;3.60;;
22429;SDS011;11382;48.086;11.632;2023-01-04T00:56:45;8.10;;;4.10;;
22429;SDS011;11382;48.086;11.632;2023-01-04T00:59:15;6.28;;;4.00;;
22429;SDS011;11382;48.086;11.632;2023-01-04T01:01:45;6.07;;;4.25;;
22429;SDS011;11382;48.086;11.632;2023-01-04T01:04:14;6.70;;;4.43;;
22429;SDS011;11382;48.086;11.632;2023-01-04T01:06:43;5.57;;;3.70;;
22429;SDS011;11382;48.086;11.632;2023-01-04T01:09:11;5.38;;;3.75;;
22429;SDS011;11382;48.086;11.632;2023-01-04T01:11:40;5.10;;;3.53;;
22429;SDS011;11382;48.086;11.632;2023-01-04T01:14:11;5.53;;;4.05;;
22429;SDS011;11382;48.086;11.632;2023-01-04T01:16:42;7.68;;;3.72;;
22429;SDS011;11382;48.086;11.632;2023-01-04T01:19:22;4.63;;;3.50;;
22429;SDS011;11382;48.086;11.632;2023-01-04T01:21:50;5.45;;;3.95;;
22429;SDS011;11382;48.086;11.632;2023-01-04T01:24:18;4.10;;;3.33;;
22429;SDS011;11382;48.086;11.632;2023-01-04T01:26:48;5.82;;;3.53;;
22429;SDS011;11382;48.086;11.632;2023-01-04T01:29:16;5.03;;;3.75;;
22429;SDS011;11382;48.086;11.632;2023-01-04T01:31:43;6.28;;;3.30;;
22429;SDS011;11382;48.086;11.632;2023-01-04T01:34:11;4.72;;;3.50;;
22429;SDS011;11382;48.086;11.632;2023-01-04T01:36:40;4.53;;;3.08;;
22429;SDS011;11382;48.086;11.632;2023-01-04T01:39:07;4.60;;;3.28;;
22429;SDS011;11382;48.086;11.632;2023-01-04T01:41:35;5.07;;;3.22;;
22429;SDS011;11382;48.086;11.632;2023-01-04T01:44:05;3.83;;;2.95;;
22429;SDS011;11382;48.086;11.632;2023-01-04T01:46:53;4.53;;;3.15;;
22429;SDS011;11382;48.086;11.632;2023-01-04T01:49:23;4.43;;;3.38;;
22429;SDS011;11382;48.086;11.632;2023-01-04T01:51:53;4.35;;;3.20;;
22429;SDS011;11382;48.086;11.632;2023-01-04T01:54:23;4.47;;;3.10;;
22429;SDS011;11382;48.086;11.632;2023-01-04T01:56:57;4.65;;;3.42;;
22429;SDS011;11382;48.086;11.632;2023-01-04T01:59:30;4.68;;;3.50;;
22429;SDS011;11382;48.086;11.632;2023-01-04T02:02:00;6.07;;;3.30;;
22429;SDS011;11382;48.086;11.632;2023-01-04T02:04:28;3.72;;;3.08;;
22429;SDS011;11382;48.086;11.632;2023-01-04T02:06:57;5.20;;;3.20;;
22429;SDS011;11382;48.086;11.632;2023-01-04T02:09:25;10.00;;;3.42;;
22429;SDS011;11382;48.086;11.632;2023-01-04T02:11:56;4.93;;;3.33;;
22429;SDS011;11382;48.086;11.632;2023-01-04T02:14:23;3.75;;;3.08;;
22429;SDS011;11382;48.086;11.632;2023-01-04T02:17:02;5.05;;;2.50;;
22429;SDS011;11382;48.086;11.632;2023-01-04T02:22:50;5.20;;;3.60;;
22429;SDS011;11382;48.086;11.632;2023-01-04T02:25:54;4.60;;;3.95;;
22429;SDS011;11382;48.086;11.632;2023-01-04T02:28:47;5.72;;;3.95;;
22429;SDS011;11382;48.086;11.632;2023-01-04T02:31:30;7.13;;;5.18;;
22429;SDS011;11382;48.086;11.632;2023-01-04T02:34:07;8.48;;;5.15;;
22429;SDS011;11382;48.086;11.632;2023-01-04T02:36:43;8.05;;;5.45;;
22429;SDS011;11382;48.086;11.632;2023-01-04T02:39:19;9.43;;;6.32;;
22429;SDS011;11382;48.086;11.632;2023-01-04T02:42:01;8.68;;;5.70;;
22429;SDS011;11382;48.086;11.632;2023-01-04T02:44:40;11.23;;;6.78;;
22429;SDS011;11382;48.086;11.632;2023-01-04T02:47:21;10.75;;;6.28;;
22429;SDS011;11382;48.086;11.632;2023-01-04T02:50:20;9.43;;;6.63;;
22429;SDS011;11382;48.086;11.632;2023-01-04T02:52:59;11.27;;;6.78;;
22429;SDS011;11382;48.086;11.632;2023-01-04T02:55:31;11.07;;;7.30;;
22429;SDS011;11382;48.086;11.632;2023-01-04T02:58:17;9.45;;;6.93;;
22429;SDS011;11382;48.086;11.632;2023-01-04T03:00:57;10.30;;;7.15;;
22429;SDS011;11382;48.086;11.632;2023-01-04T03:03:51;10.80;;;7.40;;
22429;SDS011;11382;48.086;11.632;2023-01-04T03:06:47;11.65;;;6.88;;
22429;SDS011;11382;48.086;11.632;2023-01-04T03:09:25;8.73;;;5.95;;
22429;SDS011;11382;48.086;11.632;2023-01-04T03:11:57;10.05;;;7.03;;
22429;SDS011;11382;48.086;11.632;2023-01-04T03:14:50;9.13;;;6.72;;
22429;SDS011;11382;48.086;11.632;2023-01-04T03:17:25;10.35;;;7.20;;
22429;SDS011;11382;48.086;11.632;2023-01-04T03:19:59;8.82;;;6.35;;
22429;SDS011;11382;48.086;11.632;2023-01-04T03:22:31;8.10;;;5.65;;
22429;SDS011;11382;48.086;11.632;2023-01-04T03:25:21;8.75;;;6.13;;
22429;SDS011;11382;48.086;11.632;2023-01-04T03:28:12;8.77;;;5.72;;
22429;SDS011;11382;48.086;11.632;2023-01-04T03:31:03;8.50;;;5.60;;
22429;SDS011;11382;48.086;11.632;2023-01-04T03:33:54;5.80;;;4.20;;
22429;SDS011;11382;48.086;11.632;2023-01-04T03:36:41;8.63;;;6.25;;
22429;SDS011;11382;48.086;11.632;2023-01-04T03:39:15;7.85;;;5.47;;
22429;SDS011;11382;48.086;11.632;2023-01-04T03:42:07;7.72;;;5.45;;
22429;SDS011;11382;48.086;11.632;2023-01-04T03:45:01;7.68;;;5.60;;
22429;SDS011;11382;48.086;11.632;2023-01-04T03:47:54;8.48;;;5.95;;
22429;SDS011;11382;48.086;11.632;2023-01-04T03:50:46;17.00;;;6.82;;
22429;SDS011;11382;48.086;11.632;2023-01-04T03:53:20;31.05;;;8.85;;
22429;SDS011;11382;48.086;11.632;2023-01-04T03:55:48;37.40;;;8.88;;
22429;SDS011;11382;48.086;11.632;2023-01-04T03:58:18;41.55;;;9.18;;
22429;SDS011;11382;48.086;11.632;2023-01-04T04:00:47;18.95;;;6.43;;
22429;SDS011;11382;48.086;11.632;2023-01-04T04:03:15;10.35;;;6.85;;
22429;SDS011;11382;48.086;11.632;2023-01-04T04:05:43;8.75;;;5.85;;
22429;SDS011;11382;48.086;11.632;2023-01-04T04:08:31;8.55;;;5.80;;
22429;SDS011;11382;48.086;11.632;2023-01-04T04:10:59;9.10;;;6.13;;
22429;SDS011;11382;48.086;11.632;2023-01-04T04:13:49;9.13;;;6.53;;
22429;SDS011;11382;48.086;11.632;2023-01-04T04:16:17;9.32;;;5.78;;
22429;SDS011;11382;48.086;11.632;2023-01-04T04:18:45;10.02;;;6.93;;
22429;SDS011;11382;48.086;11.632;2023-01-04T04:21:13;11.00;;;7.20;;
22429;SDS011;11382;48.086;11.632;2023-01-04T04:23:43;13.68;;;8.88;;
22429;SDS011;11382;48.086;11.632;2023-01-04T04:26:10;10.13;;;7.18;;
22429;SDS011;11382;48.086;11.632;2023-01-04T04:28:38;10.00;;;7.22;;
22429;SDS011;11382;48.086;11.632;2023-01-04T04:31:06;9.35;;;6.70;;
22429;SDS011;11382;48.086;11.632;2023-01-04T04:33:34;33.38;;;8.20;;
22429;SDS011;11382;48.086;11.632;2023-01-04T04:36:02;74.18;;;11.25;;
22429;SDS011;11382;48.086;11.632;2023-01-04T04:38:31;97.80;;;14.18;;
22429;SDS011;11382;48.086;11.632;2023-01-04T04:41:04;57.55;;;10.57;;
22429;SDS011;11382;48.086;11.632;2023-01-04T04:43:51;49.38;;;9.68;;
22429;SDS011;11382;48.086;11.632;2023-01-04T04:46:19;22.52;;;8.38;;
22429;SDS011;11382;48.086;11.632;2023-01-04T04:48:47;17.10;;;7.95;;
22429;SDS011;11382;48.086;11.632;2023-01-04T04:51:15;10.40;;;6.88;;
22429;SDS011;11382;48.086;11.632;2023-01-04T04:53:44;10.88;;;6.25;;
22429;SDS011;11382;48.086;11.632;2023-01-04T04:56:13;11.00;;;6.70;;
22429;SDS011;11382;48.086;11.632;2023-01-04T04:58:41;9.75;;;5.78;;
22429;SDS011;11382;48.086;11.632;2023-01-04T05:01:09;8.77;;;5.43;;
22429;SDS011;11382;48.086;11.632;2023-01-04T05:03:37;8.13;;;5.68;;
22429;SDS011;11382;48.086;11.632;2023-01-04T05:06:05;9.02;;;6.13;;
22429;SDS011;11382;48.086;11.632;2023-01-04T05:08:33;8.05;;;5.00;;
22429;SDS011;11382;48.086;11.632;2023-01-04T05:11:03;6.88;;;4.72;;
22429;SDS011;11382;48.086;11.632;2023-01-04T05:13:34;8.10;;;5.63;;
22429;SDS011;11382;48.086;11.632;2023-01-04T05:16:02;6.05;;;4.50;;
22429;SDS011;11382;48.086;11.632;2023-01-04T05:18:32;6.28;;;4.43;;
22429;SDS011;11382;48.086;11.632;2023-01-04T05:21:00;6.15;;;3.78;;
22429;SDS011;11382;48.086;11.632;2023-01-04T05:23:28;5.47;;;3.92;;
22429;SDS011;11382;48.086;11.632;2023-01-04T05:25:56;6.00;;;4.60;;
22429;SDS011;11382;48.086;11.632;2023-01-04T05:28:26;5.65;;;3.95;;
22429;SDS011;11382;48.086;11.632;2023-01-04T05:30:55;5.57;;;3.95;;
22429;SDS011;11382;48.086;11.632;2023-01-04T05:33:23;4.78;;;3.85;;
22429;SDS011;11382;48.086;11.632;2023-01-04T05:35:53;5.72;;;3.90;;
22429;SDS011;11382;48.086;11.632;2023-01-04T05:38:22;4.32;;;3.55;;
22429;SDS011;11382;48.086;11.632;2023-01-04T05:40:51;5.00;;;3.60;;
22429;SDS011;11382;48.086;11.632;2023-01-04T05:43:20;4.82;;;3.55;;
22429;SDS011;11382;48.086;11.632;2023-01-04T05:45:51;4.47;;;3.83;;
22429;SDS011;11382;48.086;11.632;2023-01-04T05:48:22;3.70;;;3.30;;
22429;SDS011;11382;48.086;11.632;2023-01-04T05:50:51;4.85;;;3.85;;
22429;SDS011;11382;48.086;11.632;2023-01-04T05:53:20;5.68;;;3.95;;
22429;SDS011;11382;48.086;11.632;2023-01-04T05:55:47;6.07;;;3.67;;
22429;SDS011;11382;48.086;11.632;2023-01-04T05:58:15;4.45;;;3.30;;
22429;SDS011;11382;48.086;11.632;2023-01-04T06:00:43;5.78;;;3.88;;
22429;SDS011;11382;48.086;11.632;2023-01-04T06:03:11;4.40;;;3.42;;
22429;SDS011;11382;48.086;11.632;2023-01-04T06:05:41;5.40;;;3.88;;
22429;SDS011;11382;48.086;11.632;2023-01-04T06:08:09;4.68;;;3.20;;
22429;SDS011;11382;48.086;11.632;2023-01-04T06:10:36;4.15;;;2.60;;
22429;SDS011;11382;48.086;11.632;2023-01-04T06:13:04;4.95;;;3.45;;
22429;SDS011;11382;48.086;11.632;2023-01-04T06:15:32;3.60;;;2.78;;
22429;SDS011;11382;48.086;11.632;2023-01-04T06:18:08;3.58;;;2.92;;
22429;SDS011;11382;48.086;11.632;2023-01-04T06:20:40;4.05;;;3.10;;
22429;SDS011;11382;48.086;11.632;2023-01-04T06:23:09;3.30;;;2.63;;
22429;SDS011;11382;48.086;11.632;2023-01-04T06:25:37;4.18;;;2.75;;
22429;SDS011;11382;48.086;11.632;2023-01-04T06:28:05;4.00;;;2.80;;
22429;SDS011;11382;48.086;11.632;2023-01-04T06:30:33;4.60;;;3.20;;
22429;SDS011;11382;48.086;11.632;2023-01-04T06:33:01;3.58;;;2.70;;
22429;SDS011;11382;48.086;11.632;2023-01-04T06:35:29;4.28;;;2.92;;
22429;SDS011;11382;48.086;11.632;2023-01-04T06:37:59;3.60;;;2.70;;
22429;SDS011;11382;48.086;11.632;2023-01-04T06:40:26;4.32;;;3.30;;
22429;SDS011;11382;48.086;11.632;2023-01-04T06:42:54;3.25;;;2.65;;
22429;SDS011;11382;48.086;11.632;2023-01-04T06:45:22;3.28;;;2.75;;
22429;SDS011;11382;48.086;11.632;2023-01-04T06:47:50;3.15;;;2.47;;
22429;SDS011;11382;48.086;11.632;2023-01-04T06:50:18;3.85;;;3.15;;
22429;SDS011;11382;48.086;11.632;2023-01-04T06:52:46;4.47;;;3.28;;
22429;SDS011;11382;48.086;11.632;2023-01-04T06:55:15;4.53;;;2.90;;
22429;SDS011;11382;48.086;11.632;2023-01-04T06:57:43;5.20;;;2.50;;
22429;SDS011;11382;48.086;11.632;2023-01-04T07:00:12;3.20;;;2.53;;
22429;SDS011;11382;48.086;11.632;2023-01-04T07:02:40;4.70;;;2.85;;
22429;SDS011;11382;48.086;11.632;2023-01-04T07:05:28;3.75;;;2.63;;
22429;SDS011;11382;48.086;11.632;2023-01-04T07:07:58;3.72;;;2.70;;
22429;SDS011;11382;48.086;11.632;2023-01-04T07:10:36;3.58;;;2.80;;
22429;SDS011;11382;48.086;11.632;2023-01-04T07:13:04;4.55;;;2.90;;
22429;SDS011;11382;48.086;11.632;2023-01-04T07:15:32;4.43;;;3.20;;
22429;SDS011;11382;48.086;11.632;2023-01-04T07:18:05;3.17;;;2.25;;
22429;SDS011;11382;48.086;11.632;2023-01-04T07:20:35;3.22;;;2.58;;
22429;SDS011;11382;48.086;11.632;2023-01-04T07:23:03;3.10;;;2.60;;
22429;SDS011;11382;48.086;11.632;2023-01-04T07:25:32;3.53;;;2.13;;
22429;SDS011;11382;48.086;11.632;2023-01-04T07:28:01;3.15;;;2.33;;
22429;SDS011;11382;48.086;11.632;2023-01-04T07:30:29;3.28;;;2.45;;
22429;SDS011;11382;48.086;11.632;2023-01-04T07:32:57;3.30;;;2.65;;
22429;SDS011;11382;48.086;11.632;2023-01-04T07:35:25;2.75;;;2.33;;
22429;SDS011;11382;48.086;11.632;2023-01-04T07:37:53;4.20;;;2.67;;
22429;SDS011;11382;48.086;11.632;2023-01-04T07:40:24;3.13;;;2.65;;
22429;SDS011;11382;48.086;11.632;2023-01-04T07:42:54;3.28;;;2.30;;
22429;SDS011;11382;48.086;11.632;2023-01-04T07:45:24;4.22;;;2.95;;
22429;SDS011;11382;48.086;11.632;2023-01-04T07:47:52;3.40;;;2.38;;
22429;SDS011;11382;48.086;11.632;2023-01-04T07:50:21;4.35;;;2.70;;
22429;SDS011;11382;48.086;11.632;2023-01-04T07:52:49;4.15;;;2.55;;
22429;SDS011;11382;48.086;11.632;2023-01-04T07:55:16;3.42;;;2.53;;
22429;SDS011;11382;48.086;11.632;2023-01-04T07:57:44;3.70;;;2.65;;
22429;SDS011;11382;48.086;11.632;2023-01-04T08:00:13;4.10;;;2.63;;
22429;SDS011;11382;48.086;11.632;2023-01-04T08:02:42;4.82;;;2.83;;
22429;SDS011;11382;48.086;11.632;2023-01-04T08:05:10;3.65;;;2.60;;
22429;SDS011;11382;48.086;11.632;2023-01-04T08:07:38;4.13;;;2.50;;
22429;SDS011;11382;48.086;11.632;2023-01-04T08:10:07;3.38;;;2.65;;
22429;SDS011;11382;48.086;11.632;2023-01-04T08:12:35;3.63;;;2.72;;
22429;SDS011;11382;48.086;11.632;2023-01-04T08:15:03;2.95;;;2.28;;
22429;SDS011;11382;48.086;11.632;2023-01-04T08:17:32;2.70;;;2.30;;
22429;SDS011;11382;48.086;11.632;2023-01-04T08:20:02;3.25;;;2.20;;
22429;SDS011;11382;48.086;11.632;2023-01-04T08:22:30;2.30;;;2.00;;
22429;SDS011;11382;48.086;11.632;2023-01-04T08:24:58;3.03;;;2.40;;
22429;SDS011;11382;48.086;11.632;2023-01-04T08:27:26;2.60;;;2.10;;
22429;SDS011;11382;48.086;11.632;2023-01-04T08:29:54;2.85;;;2.20;;
22429;SDS011;11382;48.086;11.632;2023-01-04T08:32:22;2.45;;;2.08;;
22429;SDS011;11382;48.086;11.632;2023-01-04T08:34:49;3.90;;;1.92;;
22429;SDS011;11382;48.086;11.632;2023-01-04T08:37:20;2.80;;;2.28;;
22429;SDS011;11382;48.086;11.632;2023-01-04T08:39:48;2.97;;;2.28;;
22429;SDS011;11382;48.086;11.632;2023-01-04T08:42:16;3.00;;;2.05;;
22429;SDS011;11382;48.086;11.632;2023-01-04T08:44:56;2.92;;;2.40;;
22429;SDS011;11382;48.086;11.632;2023-01-04T08:47:27;4.55;;;2.20;;
22429;SDS011;11382;48.086;11.632;2023-01-04T08:49:55;4.20;;;2.10;;
22429;SDS011;11382;48.086;11.632;2023-01-04T08:52:25;2.58;;;2.00;;
22429;SDS011;11382;48.086;11.632;2023-01-04T08:54:53;3.13;;;2.00;;
22429;SDS011;11382;48.086;11.632;2023-01-04T08:57:21;2.17;;;1.80;;
22429;SDS011;11382;48.086;11.632;2023-01-04T08:59:49;2.67;;;2.00;;
22429;SDS011;11382;48.086;11.632;2023-01-04T09:02:21;2.40;;;1.90;;
22429;SDS011;11382;48.086;11.632;2023-01-04T09:04:50;2.97;;;1.92;;
22429;SDS011;11382;48.086;11.632;2023-01-04T09:07:19;3.15;;;1.67;;
22429;SDS011;11382;48.086;11.632;2023-01-04T09:09:48;2.60;;;1.90;;
22429;SDS011;11382;48.086;11.632;2023-01-04T09:12:16;2.50;;;1.63;;
22429;SDS011;11382;48.086;11.632;2023-01-04T09:14:44;3.30;;;2.15;;
22429;SDS011;11382;48.086;11.632;2023-01-04T09:17:12;3.22;;;2.20;;
22429;SDS011;11382;48.086;11.632;2023-01-04T09:19:40;2.15;;;1.70;;
22429;SDS011;11382;48.086;11.632;2023-01-04T09:22:08;2.75;;;1.92;;
22429;SDS011;11382;48.086;11.632;2023-01-04T09:24:36;2.85;;;2.00;;
22429;SDS011;11382;48.086;11.632;2023-01-04T09:27:05;3.10;;;2.20;;
22429;SDS011;11382;48.086;11.632;2023-01-04T09:29:33;3.13;;;1.80;;
22429;SDS011;11382;48.086;11.632;2023-01-04T09:32:01;2.47;;;1.90;;
22429;SDS011;11382;48.086;11.632;2023-01-04T09:34:29;1.73;;;1.38;;
22429;SDS011;11382;48.086;11.632;2023-01-04T09:36:57;2.22;;;1.65;;
22429;SDS011;11382;48.086;11.632;2023-01-04T09:39:25;1.80;;;1.40;;
22429;SDS011;11382;48.086;11.632;2023-01-04T09:41:56;2.35;;;1.70;;
22429;SDS011;11382;48.086;11.632;2023-01-04T09:44:29;1.67;;;1.33;;
22429;SDS011;11382;48.086;11.632;2023-01-04T09:47:24;1.80;;;1.23;;
22429;SDS011;11382;48.086;11.632;2023-01-04T09:50:00;1.17;;;0.93;;
22429;SDS011;11382;48.086;11.632;2023-01-04T09:52:36;1.60;;;1.30;;
22429;SDS011;11382;48.086;11.632;2023-01-04T09:55:13;1.55;;;1.10;;
22429;SDS011;11382;48.086;11.632;2023-01-04T09:58:07;2.40;;;1.15;;
22429;SDS011;11382;48.086;11.632;2023-01-04T10:00:45;3.13;;;1.27;;
22429;SDS011;11382;48.086;11.632;2023-01-04T10:03:17;1.63;;;1.00;;
22429;SDS011;11382;48.086;11.632;2023-01-04T10:05:50;1.20;;;0.93;;
22429;SDS011;11382;48.086;11.632;2023-01-04T10:08:21;1.27;;;0.95;;
22429;SDS011;11382;48.086;11.632;2023-01-04T10:10:51;2.25;;;1.00;;
22429;SDS011;11382;48.086;11.632;2023-01-04T10:13:30;1.13;;;0.80;;
22429;SDS011;11382;48.086;11.632;2023-01-04T10:16:14;2.05;;;1.10;;
22429;SDS011;11382;48.086;11.632;2023-01-04T10:19:11;1.42;;;1.20;;
22429;SDS011;11382;48.086;11.632;2023-01-04T10:22:14;1.20;;;0.98;;
22429;SDS011;11382;48.086;11.632;2023-01-04T10:24:54;1.27;;;0.80;;
22429;SDS011;11382;48.086;11.632;2023-01-04T10:27:36;0.80;;;0.80;;
22429;SDS011;11382;48.086;11.632;2023-01-04T10:30:24;0.80;;;0.80;;
22429;SDS011;11382;48.086;11.632;2023-01-04T10:33:07;1.15;;;0.80;;
22429;SDS011;11382;48.086;11.632;2023-01-04T10:35:38;1.20;;;0.90;;
22429;SDS011;11382;48.086;11.632;2023-01-04T10:38:11;1.30;;;1.05;;
22429;SDS011;11382;48.086;11.632;2023-01-04T10:40:44;1.95;;;1.15;;
22429;SDS011;11382;48.086;11.632;2023-01-04T10:43:18;1.23;;;0.70;;
22429;SDS011;11382;48.086;11.632;2023-01-04T10:46:16;1.25;;;0.80;;
22429;SDS011;11382;48.086;11.632;2023-01-04T10:48:49;1.60;;;0.98;;
22429;SDS011;11382;48.086;11.632;2023-01-04T10:51:25;0.98;;;0.82;;
22429;SDS011;11382;48.086;11.632;2023-01-04T10:56:27;2.05;;;0.98;;
22429;SDS011;11382;48.086;11.632;2023-01-04T10:59:01;1.20;;;0.80;;
22429;SDS011;11382;48.086;11.632;2023-01-04T11:01:36;1.00;;;0.85;;
22429;SDS011;11382;48.086;11.632;2023-01-04T11:04:10;1.00;;;0.90;;
22429;SDS011;11382;48.086;11.632;2023-01-04T11:06:43;1.23;;;1.00;;
22429;SDS011;11382;48.086;11.632;2023-01-04T11:09:15;1.48;;;1.10;;
22429;SDS011;11382;48.086;11.632;2023-01-04T11:11:52;1.63;;;0.82;;
22429;SDS011;11382;48.086;11.632;2023-01-04T11:14:23;1.38;;;1.17;;
22429;SDS011;11382;48.086;11.632;2023-01-04T11:16:57;2.05;;;1.08;;
22429;SDS011;11382;48.086;11.632;2023-01-04T11:19:31;1.25;;;1.05;;
22429;SDS011;11382;48.086;11.632;2023-01-04T11:22:05;1.38;;;1.10;;
22429;SDS011;11382;48.086;11.632;2023-01-04T11:24:40;1.05;;;0.90;;
22429;SDS011;11382;48.086;11.632;2023-01-04T11:27:30;0.85;;;0.85;;
22429;SDS011;11382;48.086;11.632;2023-01-04T11:30:09;2.33;;;1.20;;
22429;SDS011;11382;48.086;11.632;2023-01-04T11:32:43;1.50;;;1.05;;
22429;SDS011;11382;48.086;11.632;2023-01-04T11:35:27;1.08;;;0.90;;
22429;SDS011;11382;48.086;11.632;2023-01-04T11:38:12;1.73;;;0.82;;
22429;SDS011;11382;48.086;11.632;2023-01-04T11:40:52;1.23;;;1.10;;
22429;SDS011;11382;48.086;11.632;2023-01-04T11:43:23;1.38;;;0.88;;
22429;SDS011;11382;48.086;11.632;2023-01-04T11:45:57;2.58;;;1.20;;
22429;SDS011;11382;48.086;11.632;2023-01-04T11:48:37;1.25;;;1.10;;
22429;SDS011;11382;48.086;11.632;2023-01-04T11:51:18;3.28;;;1.25;;
22429;SDS011;11382;48.086;11.632;2023-01-04T11:54:00;4.75;;;1.83;;
22429;SDS011;11382;48.086;11.632;2023-01-04T11:56:30;5.03;;;1.73;;
22429;SDS011;11382;48.086;11.632;2023-01-04T11:59:03;3.25;;;1.10;;
22429;SDS011;11382;48.086;11.632;2023-01-04T12:01:37;1.30;;;0.88;;
22429;SDS011;11382;48.086;11.632;2023-01-04T12:04:11;1.13;;;0.93;;
22429;SDS011;11382;48.086;11.632;2023-01-04T12:06:44;2.88;;;1.20;;
22429;SDS011;11382;48.086;11.632;2023-01-04T12:09:16;1.25;;;0.77;;
22429;SDS011;11382;48.086;11.632;2023-01-04T12:11:46;1.63;;;0.93;;
22429;SDS011;11382;48.086;11.632;2023-01-04T12:14:20;1.80;;;1.50;;
22429;SDS011;11382;48.086;11.632;2023-01-04T12:16:55;1.20;;;1.05;;
22429;SDS011;11382;48.086;11.632;2023-01-04T12:19:27;1.27;;;0.90;;
22429;SDS011;11382;48.086;11.632;2023-01-04T12:21:58;1.02;;;0.90;;
22429;SDS011;11382;48.086;11.632;2023-01-04T12:24:28;1.00;;;0.90;;
22429;SDS011;11382;48.086;11.632;2023-01-04T12:26:58;1.95;;;0.95;;
22429;SDS011;11382;48.086;11.632;2023-01-04T12:29:44;1.67;;;0.90;;
22429;SDS011;11382;48.086;11.632;2023-01-04T12:32:44;1.85;;;1.20;;
22429;SDS011;11382;48.086;11.632;2023-01-04T12:47:52;2.25;;;0.65;;
22429;SDS011;11382;48.086;11.632;2023-01-04T12:53:59;0.95;;;0.75;;
22429;SDS011;11382;48.086;11.632;2023-01-04T12:59:52;2.15;;;1.00;;
22429;SDS011;11382;48.086;11.632;2023-01-04T13:02:22;1.02;;;0.60;;
22429;SDS011;11382;48.086;11.632;2023-01-04T13:04:52;1.20;;;0.60;;
22429;SDS011;11382;48.086;11.632;2023-01-04T13:07:43;1.10;;;0.70;;
22429;SDS011;11382;48.086;11.632;2023-01-04T13:10:20;1.25;;;0.75;;
22429;SDS011;11382;48.086;11.632;2023-01-04T13:15:40;1.88;;;0.80;;
22429;SDS011;11382;48.086;11.632;2023-01-04T13:18:35;1.10;;;0.80;;
22429;SDS011;11382;48.086;11.632;2023-01-04T13:21:10;1.38;;;0.75;;
22429;SDS011;11382;48.086;11.632;2023-01-04T13:23:45;1.20;;;0.50;;
22429;SDS011;11382;48.086;11.632;2023-01-04T13:26:32;0.93;;;0.50;;
22429;SDS011;11382;48.086;11.632;2023-01-04T13:31:51;1.83;;;0.68;;
22429;SDS011;11382;48.086;11.632;2023-01-04T13:34:22;0.80;;;0.52;;
22429;SDS011;11382;48.086;11.632;2023-01-04T13:36:59;1.60;;;0.52;;
22429;SDS011;11382;48.086;11.632;2023-01-04T13:39:32;2.47;;;0.52;;
22429;SDS011;11382;48.086;11.632;2023-01-04T13:42:01;1.85;;;0.60;;
22429;SDS011;11382;48.086;11.632;2023-01-04T13:47:48;0.73;;;0.55;;
22429;SDS011;11382;48.086;11.632;2023-01-04T13:53:15;0.77;;;0.55;;
22429;SDS011;11382;48.086;11.632;2023-01-04T13:55:48;1.15;;;0.50;;
22429;SDS011;11382;48.086;11.632;2023-01-04T13:58:17;4.13;;;0.57;;
22429;SDS011;11382;48.086;11.632;2023-01-04T14:00:47;0.82;;;0.40;;
22429;SDS011;11382;48.086;11.632;2023-01-04T14:03:25;0.50;;;0.50;;
22429;SDS011;11382;48.086;11.632;2023-01-04T14:06:02;0.70;;;0.30;;
22429;SDS011;11382;48.086;11.632;2023-01-04T14:08:39;0.82;;;0.47;;
22429;SDS011;11382;48.086;11.632;2023-01-04T14:11:15;0.32;;;0.32;;
22429;SDS011;11382;48.086;11.632;2023-01-04T14:14:14;0.57;;;0.47;;
22429;SDS011;11382;48.086;11.632;2023-01-04T14:16:48;0.40;;;0.40;;
22429;SDS011;11382;48.086;11.632;2023-01-04T14:31:24;0.35;;;0.25;;
22429;SDS011;11382;48.086;11.632;2023-01-04T14:33:56;0.50;;;0.35;;
22429;SDS011;11382;48.086;11.632;2023-01-04T14:36:26;0.40;;;0.30;;
22429;SDS011;11382;48.086;11.632;2023-01-04T14:38:58;0.43;;;0.30;;
22429;SDS011;11382;48.086;11.632;2023-01-04T14:41:36;0.47;;;0.40;;
22429;SDS011;11382;48.086;11.632;2023-01-04T14:44:10;0.65;;;0.30;;
22429;SDS011;11382;48.086;11.632;2023-01-04T14:46:39;0.30;;;0.30;;
22429;SDS011;11382;48.086;11.632;2023-01-04T14:49:08;0.52;;;0.40;;
22429;SDS011;11382;48.086;11.632;2023-01-04T14:51:40;0.30;;;0.30;;
22429;SDS011;11382;48.086;11.632;2023-01-04T14:54:12;0.73;;;0.40;;
22429;SDS011;11382;48.086;11.632;2023-01-04T14:56:50;1.05;;;0.30;;
22429;SDS011;11382;48.086;11.632;2023-01-04T14:59:18;0.40;;;0.20;;
22429;SDS011;11382;48.086;11.632;2023-01-04T15:01:49;0.35;;;0.35;;
22429;SDS011;11382;48.086;11.632;2023-01-04T15:04:17;0.30;;;0.20;;
22429;SDS011;11382;48.086;11.632;2023-01-04T15:06:47;0.20;;;0.20;;
22429;SDS011;11382;48.086;11.632;2023-01-04T15:09:16;0.10;;;0.10;;
22429;SDS011;11382;48.086;11.632;2023-01-04T15:11:44;0.30;;;0.30;;
22429;SDS011;11382;48.086;11.632;2023-01-04T15:14:12;0.35;;;0.10;;
22429;SDS011;11382;48.086;11.632;2023-01-04T15:16:40;2.70;;;0.17;;
22429;SDS011;11382;48.086;11.632;2023-01-04T15:19:08;0.20;;;0.20;;
22429;SDS011;11382;48.086;11.632;2023-01-04T15:21:36;0.30;;;0.20;;
22429;SDS011;11382;48.086;11.632;2023-01-04T15:24:08;1.35;;;0.35;;
22429;SDS011;11382;48.086;11.632;2023-01-04T15:26:37;0.77;;;0.20;;
22429;SDS011;11382;48.086;11.632;2023-01-04T15:29:05;0.13;;;0.10;;
22429;SDS011;11382;48.086;11.632;2023-01-04T15:31:35;0.20;;;0.20;;
22429;SDS011;11382;48.086;11.632;2023-01-04T15:34:06;1.45;;;0.30;;
22429;SDS011;11382;48.086;11.632;2023-01-04T15:36:34;0.77;;;0.20;;
22429;SDS011;11382;48.086;11.632;2023-01-04T15:39:06;0.50;;;0.30;;
22429;SDS011;11382;48.086;11.632;2023-01-04T15:41:35;0.55;;;0.30;;
22429;SDS011;11382;48.086;11.632;2023-01-04T15:44:20;0.22;;;0.22;;
22429;SDS011;11382;48.086;11.632;2023-01-04T15:46:48;0.20;;;0.20;;
22429;SDS011;11382;48.086;11.632;2023-01-04T15:49:17;0.22;;;0.20;;
22429;SDS011;11382;48.086;11.632;2023-01-04T15:51:45;0.50;;;0.40;;
22429;SDS011;11382;48.086;11.632;2023-01-04T15:54:13;0.40;;;0.30;;
22429;SDS011;11382;48.086;11.632;2023-01-04T15:56:43;0.50;;;0.40;;